EKCH Airport Information

Runway Information
Runway 04L Length 11811 ft width 148 ft
Elevation 13 ft Threshold 0 ft Heading 41
Runway 22R Length 11811 ft Width 148 ft
Elevation 14 ft Threshold 1967 ft Heading 221
Runway 04R Length 10827 ft width 148 ft
Elevation 12 ft Threshold 0 ft Heading 41
Runway 22L Length 10827 ft Width 148 ft
Elevation 8 ft Threshold 0 ft Heading 221
Runway 12 Length 10072 ft width 148 ft
Elevation 13 ft Threshold 2313 ft Heading 123
Runway 30 Length 10072 ft Width 148 ft
Elevation 8 ft Threshold 886 ft Heading 303
Airport Frequencies
Type APP Name Kastrup Ar Frequency 118.45 MHZ
Type APP Name Copenhagen Frequency 119.8 MHZ
Type APP Name Kastrup Fi Frequency 120.2 MHZ
Type ATIS Name Kastrup Ar Frequency 122.75 MHZ
Type ATIS Name Kastrup De Frequency 122.85 MHZ
Type DEL Name Kastrup Cl Frequency 119.9 MHZ
Type DEP Name Kastrup De Frequency 120.25 MHZ
Type DEP Name Kastrup De Frequency 124.975 MHZ
Type GND Name Kastrup Ap Frequency 121.625 MHZ
Type GND Name Kastrup Ap Frequency 121.725 MHZ
Type GND Name Kastrup Ap Frequency 121.9 MHZ
Type TWR Name Kastrup To Frequency 118.1 MHZ
Type TWR Name Kastrup To Frequency 118.575 MHZ
Type TWR Name Kastrup To Frequency 118.7 MHZ
Type TWR Name Kastrup To Frequency 119.35 MHZ
Type TWR Name Kastrup To Frequency 121.825 MHZ
Airport Navaids
Type VOR-DME Name Kastrup Frequency 112500 KHZ
Airport Weather Information & NOTAM
ADDS - METARS form results

(1315 UTC 09 May 2021)
Data provider http://aviationweather.gov/metar/data/
 
METAR text: EKCH 091250Z AUTO 18015KT 9999 NCD 15/09 Q1006 NOSIG
Conditions at: EKCH (COPENHAGEN/KASTR, DK) observed 1250 UTC 09 May 2021
Temperature: 15.0°C (59°F)
Dewpoint: 9.0°C (48°F) [RH = 67%]
Pressure (altimeter): 29.70 inches Hg (1006.0 mb)
Winds: from the S (180 degrees) at 17 MPH (15 knots; 7.7 m/s)
Visibility: 6 or more miles (10+ km)
Ceiling: at least 12,000 feet AGL
Clouds: sky clear below 12,000 feet AGL
Weather: no significant weather observed at this time

METAR text: EKCH 091220Z AUTO 18016KT 9999 NCD 15/09 Q1006 NOSIG
Conditions at: EKCH (COPENHAGEN/KASTR, DK) observed 1220 UTC 09 May 2021
Temperature: 15.0°C (59°F)
Dewpoint: 9.0°C (48°F) [RH = 67%]
Pressure (altimeter): 29.70 inches Hg (1006.0 mb)
Winds: from the S (180 degrees) at 18 MPH (16 knots; 8.2 m/s)
Visibility: 6 or more miles (10+ km)
Ceiling: at least 12,000 feet AGL
Clouds: sky clear below 12,000 feet AGL
Weather: no significant weather observed at this time

Forecast for: EKCH (COPENHAGEN/KASTR, DK)
Text: TAF EKCH 091106Z 0912/1012 17015KT 9999 FEW040
Forecast period: 1200 UTC 09 May 2021 to 1200 UTC 10 May 2021
Forecast type: FROM: standard forecast or significant change
Winds: from the S (170 degrees) at 17 MPH (15 knots; 7.7 m/s)
Visibility: 6 or more miles (10+ km)
Ceiling: at least 12,000 feet AGL
Clouds: few clouds at 4000 feet AGL
Weather: no significant weather forecast for this period